createdAt,value
2018-08-07T00:02:10.207Z,49.32
2018-08-07T00:04:38.584Z,50.18
2018-08-07T00:07:07.043Z,48.66
2018-08-07T00:09:35.435Z,49.25
2018-08-07T00:12:03.799Z,49.92
2018-08-07T00:14:32.176Z,49.08
2018-08-07T00:17:00.532Z,49.20
2018-08-07T00:19:28.967Z,50.03
2018-08-07T00:21:57.349Z,50.32
2018-08-07T00:24:25.695Z,50.28
2018-08-07T00:26:54.100Z,48.91
2018-08-07T00:29:22.496Z,49.38
2018-08-07T00:31:50.872Z,48.39
2018-08-07T00:34:19.344Z,50.27
2018-08-07T00:36:47.736Z,48.91
2018-08-07T00:39:17.227Z,49.95
2018-08-07T00:41:45.601Z,48.80
2018-08-07T00:44:13.980Z,49.06
2018-08-07T00:46:42.343Z,49.06
2018-08-07T00:49:10.741Z,49.23
2018-08-07T00:51:39.090Z,49.03
2018-08-07T00:54:07.439Z,48.99
2018-08-07T00:56:35.829Z,49.59
2018-08-07T00:59:04.536Z,51.40
2018-08-07T01:01:32.912Z,49.68
2018-08-07T01:04:01.307Z,49.50
2018-08-07T01:06:29.682Z,50.12
2018-08-07T01:08:58.052Z,51.41
2018-08-07T01:11:26.412Z,51.53
2018-08-07T01:13:54.754Z,49.58
2018-08-07T01:16:23.127Z,51.09
2018-08-07T01:18:51.541Z,50.40
2018-08-07T01:21:19.960Z,51.95
2018-08-07T01:23:48.356Z,51.12
2018-08-07T01:26:16.704Z,50.10
2018-08-07T01:28:45.086Z,50.87
2018-08-07T01:31:13.435Z,50.75
2018-08-07T01:33:41.816Z,52.47
2018-08-07T01:36:10.194Z,51.89
2018-08-07T01:38:38.572Z,51.31
2018-08-07T01:41:06.982Z,52.12
2018-08-07T01:43:35.359Z,51.93
2018-08-07T01:46:03.740Z,51.02
2018-08-07T01:48:32.119Z,53.25
2018-08-07T01:51:00.462Z,52.54
2018-08-07T01:53:28.813Z,53.62
2018-08-07T01:56:02.888Z,53.65
2018-08-07T01:58:31.292Z,53.57
2018-08-07T02:00:59.641Z,51.80
2018-08-07T02:03:28.030Z,52.86
2018-08-07T02:05:56.373Z,52.99
2018-08-07T02:08:24.748Z,52.82
2018-08-07T02:10:53.100Z,52.57
2018-08-07T02:13:21.511Z,52.08
2018-08-07T02:15:49.863Z,53.65
2018-08-07T02:18:18.269Z,53.14
2018-08-07T02:20:46.619Z,52.26
2018-08-07T02:23:15.028Z,53.40
2018-08-07T02:25:43.374Z,52.79
2018-08-07T02:28:11.749Z,53.32
2018-08-07T02:30:40.094Z,52.19
2018-08-07T02:33:08.481Z,53.43
2018-08-07T02:35:36.854Z,54.74
2018-08-07T02:38:05.234Z,53.57
2018-08-07T02:40:33.615Z,53.39
2018-08-07T02:43:01.961Z,53.27
2018-08-07T02:46:54.750Z,52.50
2018-08-07T02:49:23.195Z,55.69
2018-08-07T02:51:51.574Z,54.87
2018-08-07T02:54:19.981Z,53.22
2018-08-07T02:56:48.334Z,54.55
2018-08-07T02:59:16.711Z,53.71
2018-08-07T03:01:45.092Z,55.64
2018-08-07T03:04:13.473Z,54.96
2018-08-07T03:06:41.904Z,53.87
2018-08-07T03:09:11.313Z,55.03
2018-08-07T03:11:39.806Z,53.58
2018-08-07T03:14:08.678Z,54.74
2018-08-07T03:16:37.072Z,54.65
2018-08-07T03:19:05.552Z,56.02
2018-08-07T03:21:33.900Z,56.69
2018-08-07T03:24:02.282Z,55.14
2018-08-07T03:26:30.686Z,55.08
2018-08-07T03:28:59.143Z,55.72
2018-08-07T03:31:27.581Z,56.05
2018-08-07T03:33:56.281Z,56.22
2018-08-07T03:36:24.755Z,56.31
2018-08-07T03:38:53.172Z,54.64
2018-08-07T03:41:21.577Z,56.83
2018-08-07T03:43:50.037Z,55.03
2018-08-07T03:46:18.434Z,55.14
2018-08-07T03:48:46.859Z,56.84
2018-08-07T03:51:15.302Z,56.89
2018-08-07T03:53:43.745Z,55.87
2018-08-07T03:56:12.124Z,58.45
2018-08-07T03:58:40.645Z,57.54
2018-08-07T04:01:09.094Z,58.26
2018-08-07T04:03:37.531Z,55.96
2018-08-07T04:06:06.051Z,57.83
2018-08-07T04:08:34.475Z,56.28
2018-08-07T04:11:02.984Z,56.50
2018-08-07T04:13:31.468Z,58.92
2018-08-07T04:15:59.881Z,57.32
2018-08-07T04:18:28.291Z,57.33
2018-08-07T04:20:57.145Z,57.76
2018-08-07T04:23:25.599Z,58.18
2018-08-07T04:25:53.976Z,56.01
2018-08-07T04:28:22.404Z,55.91
2018-08-07T04:30:50.774Z,56.92
2018-08-07T04:33:19.177Z,57.04
2018-08-07T04:35:47.601Z,56.41
2018-08-07T04:38:15.985Z,55.98
2018-08-07T04:40:44.460Z,57.34
2018-08-07T04:43:12.891Z,55.78
2018-08-07T04:45:41.350Z,57.10
2018-08-07T04:48:09.817Z,57.28
2018-08-07T04:50:38.207Z,56.03
2018-08-07T04:53:06.612Z,58.24
2018-08-07T04:55:34.994Z,56.52
2018-08-07T04:58:03.443Z,56.12
2018-08-07T05:00:31.825Z,56.93
2018-08-07T05:03:00.239Z,57.00
2018-08-07T05:05:28.712Z,57.21
2018-08-07T05:07:57.145Z,56.67
2018-08-07T05:10:25.641Z,57.24
2018-08-07T05:12:54.074Z,56.14
2018-08-07T05:15:22.503Z,56.38
2018-08-07T05:17:51.014Z,56.42
2018-08-07T05:20:19.380Z,55.82
2018-08-07T05:22:47.827Z,56.09
2018-08-07T05:25:16.261Z,56.05
2018-08-07T05:27:44.713Z,55.55
2018-08-07T05:30:14.692Z,55.63
2018-08-07T05:32:43.354Z,55.94
2018-08-07T05:35:12.862Z,54.87
2018-08-07T05:37:41.335Z,54.85
2018-08-07T05:40:10.734Z,55.63
2018-08-07T05:42:39.576Z,54.32
2018-08-07T05:45:09.436Z,54.41
2018-08-07T05:47:37.881Z,54.48
2018-08-07T05:50:09.277Z,54.26
2018-08-07T05:52:37.722Z,53.54
2018-08-07T05:55:06.188Z,53.58
2018-08-07T05:57:34.580Z,53.31
2018-08-07T06:00:03.158Z,53.74
2018-08-07T06:03:55.982Z,52.99
2018-08-07T06:06:24.418Z,52.57
2018-08-07T06:08:52.850Z,52.75
2018-08-07T06:11:21.256Z,52.30
2018-08-07T06:13:49.670Z,51.61
2018-08-07T06:16:18.080Z,51.73
2018-08-07T06:18:46.505Z,52.10
2018-08-07T06:21:14.923Z,51.42
2018-08-07T06:23:43.337Z,51.77
2018-08-07T06:26:11.730Z,51.48
2018-08-07T06:28:40.174Z,51.79
2018-08-07T06:31:08.532Z,51.41
2018-08-07T06:33:37.021Z,49.62
2018-08-07T06:36:05.503Z,49.21
2018-08-07T06:38:33.907Z,50.85
2018-08-07T06:41:02.319Z,50.04
2018-08-07T06:43:30.796Z,49.36
2018-08-07T06:45:59.279Z,49.60
2018-08-07T06:48:27.640Z,49.55
2018-08-07T06:50:56.046Z,47.58
2018-08-07T06:53:24.419Z,47.13
2018-08-07T06:55:52.830Z,46.46
2018-08-07T06:58:21.248Z,44.96
2018-08-07T07:00:49.654Z,47.30
2018-08-07T07:03:18.034Z,46.05
2018-08-07T07:05:46.842Z,47.37
2018-08-07T07:08:15.201Z,46.95
2018-08-07T07:10:43.575Z,46.46
2018-08-07T07:13:12.058Z,42.03
2018-08-07T07:15:40.517Z,45.66
2018-08-07T07:18:08.938Z,40.58
2018-08-07T07:20:37.357Z,44.25
2018-08-07T07:23:05.787Z,40.59
2018-08-07T07:25:34.280Z,41.29
2018-08-07T07:28:02.693Z,43.19
2018-08-07T07:30:31.103Z,42.76
2018-08-07T07:32:59.526Z,37.04
2018-08-07T07:35:27.960Z,41.12
2018-08-07T07:37:56.360Z,40.69
2018-08-07T07:40:24.727Z,40.18
2018-08-07T07:42:53.080Z,40.58
2018-08-07T07:45:21.558Z,36.63
2018-08-07T07:47:50.028Z,31.03
2018-08-07T07:50:19.979Z,31.00
2018-08-07T07:52:48.485Z,33.94
2018-08-07T07:55:17.840Z,33.40
2018-08-07T07:57:46.303Z,34.05
2018-08-07T08:00:21.578Z,30.25
2018-08-07T08:02:50.340Z,28.29
2018-08-07T08:05:18.972Z,31.99
2018-08-07T08:07:47.273Z,29.72
2018-08-07T08:10:15.783Z,30.25
2018-08-07T08:12:44.208Z,26.52
2018-08-07T08:15:14.650Z,27.03
2018-08-07T08:17:43.799Z,29.44
2018-08-07T08:20:16.723Z,25.67
2018-08-07T08:22:45.090Z,27.91
2018-08-07T08:25:13.483Z,27.44
2018-08-07T08:27:42.040Z,26.81
2018-08-07T08:30:13.001Z,27.35
2018-08-07T08:32:41.630Z,25.73
2018-08-07T08:35:12.213Z,25.82
2018-08-07T08:37:41.178Z,24.94
2018-08-07T08:40:12.405Z,25.33
2018-08-07T08:42:41.362Z,24.70
2018-08-07T08:45:17.971Z,25.51
2018-08-07T08:47:47.534Z,24.44
2018-08-07T08:50:17.390Z,21.55
2018-08-07T08:52:45.886Z,21.94
2018-08-07T08:55:14.482Z,22.93
2018-08-07T08:57:44.130Z,22.21
2018-08-07T09:00:21.997Z,22.59
2018-08-07T09:02:50.432Z,22.52
2018-08-07T09:05:18.855Z,19.71
2018-08-07T09:07:47.294Z,22.01
2018-08-07T09:10:19.061Z,21.03
2018-08-07T09:12:47.665Z,22.57
2018-08-07T09:15:16.193Z,22.95
2018-08-07T09:17:44.610Z,21.10
2018-08-07T09:20:20.288Z,20.01
2018-08-07T09:22:48.701Z,21.62
2018-08-07T09:25:17.399Z,22.07
2018-08-07T09:27:45.890Z,21.58
2018-08-07T09:30:16.912Z,22.10
2018-08-07T09:32:46.269Z,21.38
2018-08-07T09:35:15.464Z,21.13
2018-08-07T09:37:44.018Z,21.18
2018-08-07T09:40:14.285Z,20.75
2018-08-07T09:42:43.760Z,18.28
2018-08-07T09:45:15.705Z,18.74
2018-08-07T09:47:44.931Z,19.54
2018-08-07T09:50:14.441Z,19.87
2018-08-07T09:52:43.297Z,19.29
2018-08-07T09:55:11.779Z,20.87
2018-08-07T09:57:40.159Z,19.56
2018-08-07T10:00:21.383Z,19.24
2018-08-07T10:02:51.289Z,19.26
2018-08-07T10:05:21.087Z,19.98
2018-08-07T10:07:50.113Z,20.67
2018-08-07T10:10:18.792Z,20.17
2018-08-07T10:12:47.472Z,19.71
2018-08-07T10:15:16.150Z,19.49
2018-08-07T10:17:44.637Z,20.50
2018-08-07T10:20:13.700Z,20.72
2018-08-07T10:22:42.414Z,20.06
2018-08-07T10:25:12.949Z,19.44
2018-08-07T10:27:42.858Z,19.32
2018-08-07T10:30:15.538Z,19.80
2018-08-07T10:32:43.992Z,17.63
2018-08-07T10:35:12.914Z,18.96
2018-08-07T10:37:42.298Z,19.13
2018-08-07T10:40:12.530Z,18.70
2018-08-07T10:42:40.947Z,18.96
2018-08-07T10:45:11.736Z,19.43
2018-08-07T10:47:40.581Z,19.45
2018-08-07T10:50:15.048Z,19.07
2018-08-07T10:52:49.655Z,17.99
2018-08-07T10:55:18.675Z,19.09
2018-08-07T10:57:48.444Z,18.57
2018-08-07T11:00:20.136Z,19.16
2018-08-07T11:02:49.740Z,18.83
2018-08-07T11:05:18.965Z,19.54
2018-08-07T11:07:47.454Z,19.80
2018-08-07T11:10:16.336Z,21.28
2018-08-07T11:12:44.945Z,20.34
2018-08-07T11:15:16.440Z,21.77
2018-08-07T11:17:45.253Z,22.22
2018-08-07T11:20:14.344Z,22.62
2018-08-07T11:22:43.968Z,24.28
2018-08-07T11:25:12.356Z,24.82
2018-08-07T11:27:40.717Z,23.40
2018-08-07T11:30:13.503Z,23.88
2018-08-07T11:32:42.075Z,23.71
2018-08-07T11:35:10.717Z,24.74
2018-08-07T11:37:40.633Z,24.40
2018-08-07T11:40:11.826Z,24.92
2018-08-07T11:42:40.203Z,25.58
2018-08-07T11:45:11.259Z,25.00
2018-08-07T11:47:39.727Z,25.61
2018-08-07T11:50:10.564Z,25.88
2018-08-07T11:52:39.258Z,26.39
2018-08-07T11:55:08.512Z,26.23
2018-08-07T11:57:37.240Z,26.60
2018-08-07T12:00:11.047Z,25.65
2018-08-07T12:02:39.456Z,26.15
2018-08-07T12:05:08.255Z,25.82
2018-08-07T12:07:37.022Z,25.64
2018-08-07T12:10:06.125Z,26.64
2018-08-07T12:12:34.511Z,27.65
2018-08-07T12:15:02.920Z,27.55
2018-08-07T12:17:31.426Z,26.96
2018-08-07T12:20:34.782Z,27.42
2018-08-07T12:23:03.209Z,27.96
2018-08-07T12:25:31.681Z,28.11
2018-08-07T12:28:00.124Z,28.14
2018-08-07T12:30:29.701Z,28.74
2018-08-07T12:32:58.377Z,28.05
2018-08-07T12:35:26.770Z,27.62
2018-08-07T12:37:55.198Z,27.57
2018-08-07T12:40:26.269Z,27.46
2018-08-07T12:42:57.400Z,27.51
2018-08-07T12:45:25.869Z,27.28
2018-08-07T12:47:54.404Z,27.65
2018-08-07T12:50:22.783Z,28.34
2018-08-07T12:52:51.188Z,27.12
2018-08-07T12:55:21.045Z,27.98
2018-08-07T12:57:49.851Z,28.90
2018-08-07T13:00:32.995Z,29.08
2018-08-07T13:03:01.380Z,28.61
2018-08-07T13:05:29.770Z,28.59
2018-08-07T13:07:58.159Z,29.39
2018-08-07T13:10:26.989Z,28.32
2018-08-07T13:12:56.241Z,28.55
2018-08-07T13:15:24.654Z,27.81
2018-08-07T13:17:53.089Z,26.94
2018-08-07T13:20:21.515Z,26.89
2018-08-07T13:22:49.908Z,28.38
2018-08-07T13:25:20.460Z,29.11
2018-08-07T13:27:48.884Z,28.67
2018-08-07T13:30:23.688Z,27.93
2018-08-07T13:32:52.053Z,28.10
2018-08-07T13:35:20.526Z,28.50
2018-08-07T13:37:49.911Z,29.45
2018-08-07T13:40:19.619Z,30.02
2018-08-07T13:42:48.001Z,30.19
2018-08-07T13:45:18.947Z,30.98
2018-08-07T13:47:47.343Z,30.43
2018-08-07T13:50:18.027Z,30.35
2018-08-07T13:52:46.943Z,28.90
2018-08-07T13:55:16.553Z,28.34
2018-08-07T13:57:45.444Z,28.40
2018-08-07T14:00:17.916Z,28.19
2018-08-07T14:02:47.113Z,29.83
2018-08-07T14:05:16.428Z,28.63
2018-08-07T14:07:45.300Z,28.15
2018-08-07T14:10:14.624Z,28.45
2018-08-07T14:12:43.262Z,27.86
2018-08-07T14:15:13.517Z,27.64
2018-08-07T14:17:42.911Z,28.33
2018-08-07T14:20:12.631Z,27.83
2018-08-07T14:22:41.245Z,28.08
2018-08-07T14:25:13.520Z,28.09
2018-08-07T14:27:42.034Z,29.07
2018-08-07T14:30:14.231Z,29.24
2018-08-07T14:32:42.611Z,30.30
2018-08-07T14:35:11.394Z,29.49
2018-08-07T14:37:41.798Z,29.00
2018-08-07T14:40:11.756Z,29.46
2018-08-07T14:42:41.760Z,30.11
2018-08-07T14:45:12.414Z,30.55
2018-08-07T14:47:41.616Z,29.72
2018-08-07T14:50:12.980Z,28.61
2018-08-07T14:52:41.924Z,27.99
2018-08-07T14:55:11.236Z,27.98
2018-08-07T14:57:40.239Z,28.17
2018-08-07T15:00:12.173Z,27.40
2018-08-07T15:02:40.625Z,27.43
2018-08-07T15:05:09.944Z,27.76
2018-08-07T15:07:38.680Z,27.29
2018-08-07T15:10:09.641Z,27.35
2018-08-07T15:12:38.081Z,27.55
2018-08-07T15:15:09.160Z,27.69
2018-08-07T15:17:37.540Z,27.86
2018-08-07T15:20:06.870Z,27.72
2018-08-07T15:22:35.277Z,27.96
2018-08-07T15:25:03.739Z,28.32
2018-08-07T15:27:32.116Z,28.30
2018-08-07T15:30:00.456Z,29.67
2018-08-07T15:32:28.875Z,28.47
2018-08-07T15:34:57.303Z,28.58
2018-08-07T15:37:25.723Z,27.99
2018-08-07T15:39:54.120Z,29.05
2018-08-07T15:42:22.589Z,28.83
2018-08-07T15:44:50.968Z,28.35
2018-08-07T15:47:19.418Z,28.61
2018-08-07T15:49:47.831Z,28.00
2018-08-07T15:52:16.233Z,27.95
2018-08-07T15:54:44.659Z,28.33
2018-08-07T15:57:13.088Z,27.96
2018-08-07T15:59:41.548Z,28.77
2018-08-07T16:02:09.957Z,28.15
2018-08-07T16:04:38.545Z,27.99
2018-08-07T16:07:06.992Z,28.38
2018-08-07T16:09:35.508Z,28.09
2018-08-07T16:12:04.363Z,28.27
2018-08-07T16:14:32.751Z,28.88
2018-08-07T16:17:01.203Z,28.96
2018-08-07T16:19:29.630Z,28.39
2018-08-07T16:21:57.983Z,28.58
2018-08-07T16:24:26.394Z,28.76
2018-08-07T16:26:54.945Z,28.02
2018-08-07T16:29:23.435Z,28.57
2018-08-07T16:31:52.106Z,28.30
2018-08-07T16:34:20.528Z,28.41
2018-08-07T16:36:48.984Z,28.47
2018-08-07T16:39:17.521Z,28.16
2018-08-07T16:41:45.935Z,27.23
2018-08-07T16:44:14.323Z,27.92
2018-08-07T16:46:42.692Z,28.24
2018-08-07T16:49:11.070Z,28.65
2018-08-07T16:51:39.483Z,28.47
2018-08-07T16:54:07.934Z,27.67
2018-08-07T16:56:36.355Z,27.81
2018-08-07T16:59:04.929Z,27.89
2018-08-07T17:01:33.335Z,27.77
2018-08-07T17:04:01.858Z,28.94
2018-08-07T17:06:30.272Z,28.59
2018-08-07T17:08:58.718Z,28.55
2018-08-07T17:11:27.184Z,28.56
2018-08-07T17:13:55.674Z,28.35
2018-08-07T17:16:24.169Z,28.54
2018-08-07T17:18:52.580Z,28.59
2018-08-07T17:21:20.988Z,28.72
2018-08-07T17:23:49.449Z,28.55
2018-08-07T17:26:17.880Z,28.62
2018-08-07T17:28:46.349Z,28.57
2018-08-07T17:31:14.740Z,27.88
2018-08-07T17:33:43.133Z,28.32
2018-08-07T17:36:11.543Z,28.12
2018-08-07T17:40:05.281Z,27.75
2018-08-07T17:42:33.725Z,28.50
2018-08-07T17:45:02.106Z,28.50
2018-08-07T17:47:30.521Z,27.91
2018-08-07T17:49:58.960Z,29.03
2018-08-07T17:52:27.391Z,29.06
2018-08-07T17:54:55.827Z,28.88
2018-08-07T17:57:24.207Z,29.08
2018-08-07T17:59:53.068Z,28.15
2018-08-07T18:02:21.440Z,28.80
2018-08-07T18:04:49.926Z,28.23
2018-08-07T18:07:18.461Z,28.07
2018-08-07T18:09:46.891Z,27.86
2018-08-07T18:12:15.412Z,28.71
2018-08-07T18:14:44.572Z,28.27
2018-08-07T18:17:13.152Z,28.65
2018-08-07T18:19:41.598Z,28.96
2018-08-07T18:22:10.356Z,28.42
2018-08-07T18:24:38.808Z,28.79
2018-08-07T18:27:07.421Z,29.24
2018-08-07T18:29:36.000Z,29.33
2018-08-07T18:32:04.517Z,29.08
2018-08-07T18:34:32.968Z,29.17
2018-08-07T18:37:01.403Z,29.69
2018-08-07T18:39:29.882Z,29.07
2018-08-07T18:41:58.304Z,29.24
2018-08-07T18:44:26.750Z,29.59
2018-08-07T18:46:55.162Z,29.75
2018-08-07T18:49:23.924Z,29.61
2018-08-07T18:51:53.505Z,29.43
2018-08-07T18:54:21.937Z,29.30
2018-08-07T18:56:51.025Z,30.26
2018-08-07T18:59:19.552Z,29.53
2018-08-07T19:01:48.010Z,30.11
2018-08-07T19:04:16.484Z,29.70
2018-08-07T19:06:45.384Z,30.22
2018-08-07T19:09:14.642Z,29.70
2018-08-07T19:11:43.181Z,30.92
2018-08-07T19:14:11.729Z,30.09
2018-08-07T19:16:40.222Z,29.87
2018-08-07T19:19:08.634Z,30.57
2018-08-07T19:21:37.181Z,30.03
2018-08-07T19:24:05.598Z,30.59
2018-08-07T19:26:34.146Z,30.21
2018-08-07T19:29:02.579Z,30.59
2018-08-07T19:31:31.006Z,30.50
2018-08-07T19:33:59.520Z,30.26
2018-08-07T19:36:28.071Z,30.73
2018-08-07T19:38:56.550Z,30.41
2018-08-07T19:41:24.968Z,30.62
2018-08-07T19:43:53.471Z,30.98
2018-08-07T19:46:21.927Z,30.71
2018-08-07T19:48:50.984Z,30.60
2018-08-07T19:51:19.783Z,31.36
2018-08-07T19:53:48.436Z,30.96
2018-08-07T19:56:17.432Z,31.08
2018-08-07T19:58:45.870Z,31.33
2018-08-07T20:01:14.253Z,31.00
2018-08-07T20:03:42.754Z,31.19
2018-08-07T20:06:11.208Z,31.40
2018-08-07T20:08:39.612Z,31.37
2018-08-07T20:11:08.041Z,31.42
2018-08-07T20:13:36.425Z,31.70
2018-08-07T20:16:04.936Z,31.75
2018-08-07T20:18:33.721Z,31.95
2018-08-07T20:21:02.652Z,31.40
2018-08-07T20:23:31.038Z,32.54
2018-08-07T20:26:00.118Z,31.55
2018-08-07T20:28:28.488Z,32.91
2018-08-07T20:30:57.524Z,31.98
2018-08-07T20:33:25.917Z,31.79
2018-08-07T20:35:54.323Z,32.23
2018-08-07T20:38:22.723Z,32.06
2018-08-07T20:40:51.108Z,32.34
2018-08-07T20:43:19.488Z,31.94
2018-08-07T20:45:47.938Z,32.23
2018-08-07T20:48:16.830Z,33.57
2018-08-07T20:50:46.808Z,32.28
2018-08-07T20:53:15.347Z,32.29
2018-08-07T20:55:43.913Z,32.49
2018-08-07T20:58:12.291Z,33.84
2018-08-07T21:00:40.671Z,32.76
2018-08-07T21:03:09.042Z,33.56
2018-08-07T21:05:37.524Z,32.87
2018-08-07T21:08:05.969Z,32.88
2018-08-07T21:10:34.385Z,33.24
2018-08-07T21:13:02.721Z,33.43
2018-08-07T21:15:31.121Z,33.75
2018-08-07T21:17:59.489Z,33.85
2018-08-07T21:20:28.373Z,33.85
2018-08-07T21:22:57.256Z,34.45
2018-08-07T21:25:25.651Z,34.08
2018-08-07T21:27:55.827Z,34.49
2018-08-07T21:30:26.191Z,33.65
2018-08-07T21:32:54.611Z,34.70
2018-08-07T21:35:23.036Z,34.20
2018-08-07T21:37:51.576Z,34.42
2018-08-07T21:40:21.249Z,34.09
2018-08-07T21:42:50.569Z,33.66
2018-08-07T21:45:19.752Z,34.44
2018-08-07T21:47:48.365Z,34.71
2018-08-07T21:50:18.667Z,33.83
2018-08-07T21:52:47.063Z,34.23
2018-08-07T21:55:16.699Z,34.58
2018-08-07T21:57:45.281Z,34.54
2018-08-07T22:00:16.532Z,35.36
2018-08-07T22:02:45.413Z,34.35
2018-08-07T22:05:13.985Z,34.16
2018-08-07T22:07:42.462Z,34.85
2018-08-07T22:10:17.602Z,34.66
2018-08-07T22:12:46.412Z,34.95
2018-08-07T22:15:15.729Z,35.17
2018-08-07T22:17:45.424Z,35.53
2018-08-07T22:20:14.115Z,35.07
2018-08-07T22:22:43.259Z,35.24
2018-08-07T22:25:11.918Z,35.72
2018-08-07T22:27:40.475Z,36.24
2018-08-07T22:30:13.843Z,35.14
2018-08-07T22:32:42.329Z,34.72
2018-08-07T22:35:11.054Z,36.10
2018-08-07T22:37:39.859Z,35.91
2018-08-07T22:40:09.024Z,35.98
2018-08-07T22:42:37.854Z,36.22
2018-08-07T22:45:07.980Z,36.18
2018-08-07T22:47:36.394Z,35.26
2018-08-07T22:50:05.680Z,36.58
2018-08-07T22:52:34.042Z,35.94
2018-08-07T22:55:02.475Z,36.51
2018-08-07T22:57:30.864Z,35.88
2018-08-07T22:59:59.348Z,36.39
2018-08-07T23:02:27.661Z,36.71
2018-08-07T23:04:56.046Z,37.02
2018-08-07T23:07:24.417Z,37.11
2018-08-07T23:09:52.995Z,36.96
2018-08-07T23:12:21.349Z,36.09
2018-08-07T23:14:49.726Z,36.65
2018-08-07T23:17:18.172Z,36.36
2018-08-07T23:19:46.566Z,36.17
2018-08-07T23:22:14.911Z,36.94
2018-08-07T23:24:43.251Z,37.73
2018-08-07T23:27:11.822Z,37.46
2018-08-07T23:29:40.243Z,36.42
2018-08-07T23:32:08.648Z,37.63
2018-08-07T23:34:37.541Z,37.83
2018-08-07T23:37:06.037Z,37.58
2018-08-07T23:39:34.397Z,37.68
2018-08-07T23:42:03.013Z,37.18
2018-08-07T23:44:31.359Z,36.97
2018-08-07T23:46:59.709Z,37.30
2018-08-07T23:49:28.221Z,37.75
2018-08-07T23:51:56.568Z,37.49
2018-08-07T23:54:24.980Z,37.31
2018-08-07T23:56:53.352Z,37.23
2018-08-07T23:59:21.710Z,38.30
